OMAL

Al Ain International Airport

Airport
ICAO code
OMAL
IATA Code
AAN
Summary
ICAO Region
MID
ICAO Territory
Location

Al Ain,

Serving
Al Ain
Elevation
869 ft
Coordinates
24° 15' 31" N , 55° 37' 10" E
KCC
Metar
Observation
OMAL 281100Z 32007KT 260V350 CAVOK 31/10 Q1012 NOSIG
Station
Al Ain International Airport
Date/Time
2022-11-28 11:00:00
Wind direction
320°
Wind speed
07 kts
Lowest cloud amount
clouds and visibility OK
Temperature
31°C
Dew point
10°C
Humidity
27%
QNH
1012 hPa
Weather condition
n/a

Description

Al Ain International Airport is an airport located 8m west north west of Al Ain, United Arab Emirates. It was opened in 31 March 1994. 14 flights and 4,000 passenger pass through the airport each week.

Climatology

Hot Desert Climate (Köppen climate classification BWh) - Hot desert climates are typically found in the subtropics where there is unbroken sunshine for the whole year due to the stable descending air and high pressure, little or no precipitation. Maximum temperatures of 40°C to 45°C are not uncommon, particularly during the warmer months of the year. During colder periods of the year, night-time temperatures can drop to freezing or below due to the exceptional radiation loss under the clear skies. However, very rarely do temperatures drop far below freezing.

Runways

Designator Length Width Surface Rops
1/19 4000 45 ASP Yes/Yes

Airport map

Aerial View

SKYbrary Partners:

Safety knowledge contributed by: